createdAt,value
2024-05-09T00:02:14.862Z,99882.56
2024-05-09T00:07:37.313Z,99881.88
2024-05-09T00:12:59.623Z,99888.88
2024-05-09T00:18:22.345Z,99894.22
2024-05-09T00:23:44.909Z,99893.22
2024-05-09T00:29:07.231Z,99905.88
2024-05-09T00:34:41.407Z,99901.03
2024-05-09T00:40:03.634Z,99909.06
2024-05-09T00:45:25.979Z,99910.56
2024-05-09T00:50:48.800Z,99901.91
2024-05-09T00:56:12.697Z,99897.56
2024-05-09T01:01:36.197Z,99901.56
2024-05-09T01:06:58.404Z,99902.56
2024-05-09T01:12:21.139Z,99906.56
2024-05-09T01:17:43.864Z,99907.06
2024-05-09T01:23:10.028Z,99904.41
2024-05-09T01:28:44.583Z,99903.22
2024-05-09T01:34:07.466Z,99911.06
2024-05-09T01:39:29.520Z,99908.41
2024-05-09T01:44:51.402Z,99916.06
2024-05-09T01:50:16.506Z,99903.53
2024-05-09T01:55:40.895Z,99902.53
2024-05-09T02:01:03.528Z,99906.19
2024-05-09T02:06:26.211Z,99885.66
2024-05-09T02:11:49.353Z,99902.91
2024-05-09T02:17:12.230Z,99892.94
2024-05-09T02:22:35.028Z,99903.97
2024-05-09T02:27:57.751Z,99906.53
2024-05-09T02:33:20.337Z,99909.13
2024-05-09T02:38:43.646Z,99917.88
2024-05-09T02:44:06.311Z,99919.31
2024-05-09T02:49:40.871Z,99915.97
2024-05-09T02:55:03.464Z,99918.72
2024-05-09T03:00:34.719Z,99922.97
2024-05-09T03:06:03.125Z,99918.13
2024-05-09T03:11:26.624Z,99901.44
2024-05-09T03:16:49.511Z,99913.81
2024-05-09T03:22:13.094Z,99895.00
2024-05-09T03:27:47.979Z,99899.31
2024-05-09T03:33:21.094Z,99913.81
2024-05-09T03:38:43.523Z,99908.50
2024-05-09T03:44:06.515Z,99928.63
2024-05-09T03:49:29.465Z,99913.84
2024-05-09T03:54:51.752Z,99925.53
2024-05-09T04:00:21.964Z,99918.13
2024-05-09T04:05:48.837Z,99907.78
2024-05-09T04:11:11.238Z,99916.41
2024-05-09T04:16:45.403Z,99916.16
2024-05-09T04:22:07.467Z,99914.81
2024-05-09T04:27:41.885Z,99901.66
2024-05-09T04:33:17.224Z,99901.78
2024-05-09T04:38:52.285Z,99903.94
2024-05-09T04:44:14.762Z,99918.41
2024-05-09T04:49:39.647Z,99899.13
2024-05-09T04:55:01.664Z,99917.88
2024-05-09T05:00:32.705Z,99901.06
2024-05-09T05:05:59.520Z,99934.66
2024-05-09T05:11:22.026Z,99936.94
2024-05-09T05:16:44.847Z,99914.34
2024-05-09T05:22:09.176Z,99917.78
2024-05-09T05:27:32.051Z,99906.28
2024-05-09T05:32:55.875Z,99931.81
2024-05-09T05:38:19.133Z,99939.97
2024-05-09T05:43:59.540Z,99932.81
2024-05-09T05:49:22.389Z,99909.16
2024-05-09T05:54:45.326Z,99920.47
2024-05-09T06:00:29.211Z,99907.09
2024-05-09T06:05:57.850Z,99889.84
2024-05-09T06:11:21.013Z,99898.69
2024-05-09T06:16:44.465Z,99900.97
2024-05-09T06:22:06.995Z,99898.66
2024-05-09T06:27:29.328Z,99884.31
2024-05-09T06:32:51.968Z,99873.78
2024-05-09T06:38:14.660Z,99905.00
2024-05-09T06:43:38.270Z,99886.63
2024-05-09T06:49:09.163Z,99895.06
2024-05-09T06:54:31.876Z,99882.16
2024-05-09T07:00:00.406Z,99875.31
2024-05-09T07:05:26.598Z,99871.06
2024-05-09T07:11:02.586Z,99870.69
2024-05-09T07:16:29.022Z,99870.97
2024-05-09T07:21:52.371Z,99876.66
2024-05-09T07:27:15.128Z,99874.16
2024-05-09T07:32:39.614Z,99873.97
2024-05-09T07:38:02.181Z,99880.06
2024-05-09T07:43:25.998Z,99886.81
2024-05-09T07:54:20.088Z,99874.47
2024-05-09T07:59:43.479Z,99865.19
2024-05-09T08:05:06.685Z,99878.59
2024-05-09T08:10:31.179Z,99869.34
2024-05-09T08:15:56.245Z,99858.94
2024-05-09T08:21:19.917Z,99849.19
2024-05-09T08:26:42.957Z,99839.38
2024-05-09T08:32:07.241Z,99847.41
2024-05-09T08:37:36.667Z,99876.91
2024-05-09T08:43:02.877Z,99862.56
2024-05-09T08:48:41.357Z,99859.06
2024-05-09T08:54:05.262Z,99855.13
2024-05-09T08:59:53.103Z,99860.38
2024-05-09T09:05:18.202Z,99859.00
2024-05-09T09:10:44.213Z,99862.63
2024-05-09T09:16:09.266Z,99867.03
2024-05-09T09:21:32.162Z,99850.22
2024-05-09T09:27:06.539Z,99876.72
2024-05-09T09:32:32.185Z,99857.75
2024-05-09T09:38:00.530Z,99856.69
2024-05-09T09:43:36.578Z,99855.69
2024-05-09T09:49:01.468Z,99862.47
2024-05-09T09:54:38.895Z,99881.13
2024-05-09T10:00:05.627Z,99916.34
2024-05-09T10:05:35.713Z,99895.97
2024-05-09T10:11:05.301Z,99885.75
2024-05-09T10:16:32.481Z,99890.81
2024-05-09T10:22:07.067Z,99875.50
2024-05-09T10:27:32.954Z,99885.00
2024-05-09T10:32:57.566Z,99879.91
2024-05-09T10:38:20.956Z,99877.63
2024-05-09T10:43:43.812Z,99876.97
2024-05-09T10:49:08.132Z,99875.72
2024-05-09T10:54:38.182Z,99891.31
2024-05-09T11:00:02.123Z,99913.34
2024-05-09T11:05:28.143Z,99893.16
2024-05-09T11:10:55.254Z,99898.09
2024-05-09T11:16:21.942Z,99883.63
2024-05-09T11:21:46.799Z,99883.72
2024-05-09T11:27:11.251Z,99888.25
2024-05-09T11:32:34.467Z,99907.69
2024-05-09T11:37:57.582Z,99908.22
2024-05-09T11:43:21.614Z,99897.75
2024-05-09T11:49:00.433Z,99898.47
2024-05-09T11:54:24.671Z,99905.75
2024-05-09T11:59:47.575Z,99909.09
2024-05-09T12:05:11.984Z,99904.81
2024-05-09T12:10:36.393Z,99888.28
2024-05-09T12:16:01.095Z,99880.81
2024-05-09T12:21:25.240Z,99874.41
2024-05-09T12:26:50.870Z,99881.03
2024-05-09T12:32:15.641Z,99881.56
2024-05-09T12:37:39.954Z,99885.78
2024-05-09T12:43:09.109Z,99881.97
2024-05-09T12:48:35.852Z,99879.72
2024-05-09T13:20:43.408Z,99896.25
2024-05-09T13:26:09.335Z,99883.31
2024-05-09T13:31:33.477Z,99862.59
2024-05-09T13:36:56.272Z,99867.97
2024-05-09T13:42:18.559Z,99862.13
2024-05-09T13:47:41.833Z,99862.31
2024-05-09T13:53:08.048Z,99860.78
2024-05-09T13:58:48.568Z,99873.75
2024-05-09T14:04:25.360Z,99863.41
2024-05-09T14:09:50.558Z,99851.22
2024-05-09T14:15:13.289Z,99857.84
2024-05-09T14:20:36.084Z,99847.69
2024-05-09T14:26:01.551Z,99840.19
2024-05-09T14:31:27.413Z,99829.00
2024-05-09T14:36:51.851Z,99823.34
2024-05-09T14:42:15.588Z,99839.13
2024-05-09T14:47:38.116Z,99844.31
2024-05-09T14:53:14.078Z,99840.75
2024-05-09T14:58:50.972Z,99833.53
2024-05-09T15:04:15.121Z,99850.91
2024-05-09T15:09:40.178Z,99842.13
2024-05-09T15:15:19.336Z,99836.56
2024-05-09T15:20:42.434Z,99850.47
2024-05-09T15:26:06.685Z,99852.16
2024-05-09T15:31:31.119Z,99836.16
2024-05-09T15:36:53.557Z,99844.84
2024-05-09T15:42:19.297Z,99847.84
2024-05-09T15:47:41.863Z,99846.53
2024-05-09T15:53:06.588Z,99850.94
2024-05-09T15:58:31.358Z,99853.72
2024-05-09T16:04:16.011Z,99850.19
2024-05-09T16:09:39.032Z,99849.13
2024-05-09T16:15:01.969Z,99831.34
2024-05-09T16:20:47.262Z,99839.31
2024-05-09T16:26:15.565Z,99841.06
2024-05-09T16:31:39.237Z,99828.69
2024-05-09T16:37:03.022Z,99831.41
2024-05-09T16:42:26.724Z,99833.66
2024-05-09T16:47:51.920Z,99828.59
2024-05-09T16:53:20.448Z,99823.31
2024-05-09T16:58:47.273Z,99814.19
2024-05-09T17:04:09.879Z,99827.00
2024-05-09T17:09:33.411Z,99818.91
2024-05-09T17:14:58.642Z,99814.59
2024-05-09T17:20:29.429Z,99821.06
2024-05-09T17:25:57.671Z,99818.50
2024-05-09T17:31:21.046Z,99818.75
2024-05-09T17:36:44.846Z,99825.75
2024-05-09T17:42:07.416Z,99829.59
2024-05-09T17:47:37.955Z,99824.44
2024-05-09T17:53:02.874Z,99826.84
2024-05-09T17:58:27.660Z,99838.84
2024-05-09T18:03:55.190Z,99839.41
2024-05-09T18:09:19.770Z,99834.72
2024-05-09T18:14:42.320Z,99845.63
2024-05-09T18:20:08.925Z,99826.75
2024-05-09T18:25:47.340Z,99811.66
2024-05-09T18:31:21.780Z,99816.00
2024-05-09T18:36:47.505Z,99810.78
2024-05-09T18:42:10.212Z,99811.72
2024-05-09T18:47:39.091Z,99790.00
2024-05-09T18:53:13.813Z,99791.88
2024-05-09T18:58:37.949Z,99796.25
2024-05-09T19:04:01.208Z,99792.44
2024-05-09T19:09:23.522Z,99783.06
2024-05-09T19:14:48.643Z,99783.38
2024-05-09T19:20:31.910Z,99786.75
2024-05-09T19:25:57.718Z,99778.00
2024-05-09T19:31:21.343Z,99772.16
2024-05-09T19:36:43.890Z,99767.22
2024-05-09T19:42:21.406Z,99772.97
2024-05-09T19:47:45.340Z,99770.03
2024-05-09T19:53:09.393Z,99772.31
2024-05-09T19:58:34.687Z,99762.00
2024-05-09T20:03:59.975Z,99759.81
2024-05-09T20:09:23.582Z,99754.22
2024-05-09T20:14:58.659Z,99744.19
2024-05-09T20:20:31.925Z,99753.53
2024-05-09T20:25:59.265Z,99756.63
2024-05-09T20:31:24.048Z,99756.84
2024-05-09T20:36:47.792Z,99754.56
2024-05-09T20:42:10.425Z,99748.78
2024-05-09T20:47:34.644Z,99752.19
2024-05-09T20:52:56.955Z,99754.06
2024-05-09T20:58:20.301Z,99757.03
2024-05-09T21:03:43.243Z,99744.53
2024-05-09T21:09:31.543Z,99738.13
2024-05-09T21:14:54.278Z,99742.28
2024-05-09T21:20:31.098Z,99747.47
2024-05-09T21:26:07.189Z,99744.53
2024-05-09T21:31:30.971Z,99737.19
2024-05-09T21:36:56.290Z,99733.97
2024-05-09T21:42:18.786Z,99730.50
2024-05-09T21:47:43.629Z,99722.53
2024-05-09T21:53:07.777Z,99725.09
2024-05-09T21:58:30.908Z,99722.97
2024-05-09T22:03:53.365Z,99712.38
2024-05-09T22:09:15.577Z,99712.56
2024-05-09T22:14:37.826Z,99702.72
2024-05-09T22:20:00.158Z,99695.03
2024-05-09T22:25:22.469Z,99692.13
2024-05-09T22:30:47.655Z,99690.69
2024-05-09T22:36:10.267Z,99681.63
2024-05-09T22:41:32.780Z,99689.00
2024-05-09T22:46:55.065Z,99674.19
2024-05-09T22:52:42.000Z,99671.22
2024-05-09T22:58:04.573Z,99663.44
2024-05-09T23:03:27.542Z,99659.56
2024-05-09T23:08:50.372Z,99655.69
2024-05-09T23:14:12.955Z,99653.09
2024-05-09T23:19:36.278Z,99650.44
2024-05-09T23:25:00.899Z,99645.00
2024-05-09T23:30:33.065Z,99645.84
2024-05-09T23:35:59.945Z,99630.38
2024-05-09T23:41:22.352Z,99619.13
2024-05-09T23:46:45.169Z,99621.28
2024-05-09T23:52:07.503Z,99611.03
2024-05-09T23:57:30.085Z,99615.47
